sensor_id;sensor_type;location;lat;lon;timestamp;P1;durP1;ratioP1;P2;durP2;ratioP2
6388;SDS011;3227;42.654;23.360;2022-07-29T00:02:01;10.07;;;8.00;;
6388;SDS011;3227;42.654;23.360;2022-07-29T00:04:28;11.48;;;8.15;;
6388;SDS011;3227;42.654;23.360;2022-07-29T00:06:55;10.50;;;8.60;;
6388;SDS011;3227;42.654;23.360;2022-07-29T00:09:23;10.95;;;7.82;;
6388;SDS011;3227;42.654;23.360;2022-07-29T00:11:50;9.55;;;7.60;;
6388;SDS011;3227;42.654;23.360;2022-07-29T00:14:17;10.10;;;7.32;;
6388;SDS011;3227;42.654;23.360;2022-07-29T00:16:43;10.65;;;7.32;;
6388;SDS011;3227;42.654;23.360;2022-07-29T00:19:10;11.38;;;7.85;;
6388;SDS011;3227;42.654;23.360;2022-07-29T00:21:37;11.32;;;7.97;;
6388;SDS011;3227;42.654;23.360;2022-07-29T00:24:04;12.73;;;8.15;;
6388;SDS011;3227;42.654;23.360;2022-07-29T00:26:32;10.00;;;7.47;;
6388;SDS011;3227;42.654;23.360;2022-07-29T00:28:59;9.68;;;7.00;;
6388;SDS011;3227;42.654;23.360;2022-07-29T00:31:26;10.05;;;7.82;;
6388;SDS011;3227;42.654;23.360;2022-07-29T00:33:53;11.40;;;7.60;;
6388;SDS011;3227;42.654;23.360;2022-07-29T00:36:20;11.60;;;8.38;;
6388;SDS011;3227;42.654;23.360;2022-07-29T00:38:46;11.32;;;8.00;;
6388;SDS011;3227;42.654;23.360;2022-07-29T00:41:13;9.68;;;7.55;;
6388;SDS011;3227;42.654;23.360;2022-07-29T00:43:42;10.25;;;6.97;;
6388;SDS011;3227;42.654;23.360;2022-07-29T00:46:08;14.35;;;7.78;;
6388;SDS011;3227;42.654;23.360;2022-07-29T00:48:35;10.10;;;7.93;;
6388;SDS011;3227;42.654;23.360;2022-07-29T00:51:03;12.40;;;7.35;;
6388;SDS011;3227;42.654;23.360;2022-07-29T00:53:32;12.40;;;7.40;;
6388;SDS011;3227;42.654;23.360;2022-07-29T00:56:00;9.93;;;7.45;;
6388;SDS011;3227;42.654;23.360;2022-07-29T00:58:27;10.90;;;7.55;;
6388;SDS011;3227;42.654;23.360;2022-07-29T01:00:55;9.00;;;7.38;;
6388;SDS011;3227;42.654;23.360;2022-07-29T01:03:22;12.93;;;7.35;;
6388;SDS011;3227;42.654;23.360;2022-07-29T01:05:49;9.70;;;7.72;;
6388;SDS011;3227;42.654;23.360;2022-07-29T01:08:16;11.77;;;7.60;;
6388;SDS011;3227;42.654;23.360;2022-07-29T01:10:45;15.38;;;8.18;;
6388;SDS011;3227;42.654;23.360;2022-07-29T01:13:12;11.48;;;7.50;;
6388;SDS011;3227;42.654;23.360;2022-07-29T01:15:41;13.52;;;7.55;;
6388;SDS011;3227;42.654;23.360;2022-07-29T01:18:16;10.82;;;7.45;;
6388;SDS011;3227;42.654;23.360;2022-07-29T01:20:55;11.00;;;7.22;;
6388;SDS011;3227;42.654;23.360;2022-07-29T01:23:46;11.70;;;7.93;;
6388;SDS011;3227;42.654;23.360;2022-07-29T01:26:27;10.02;;;6.95;;
6388;SDS011;3227;42.654;23.360;2022-07-29T01:29:03;10.80;;;7.90;;
6388;SDS011;3227;42.654;23.360;2022-07-29T01:31:39;9.45;;;7.05;;
6388;SDS011;3227;42.654;23.360;2022-07-29T01:34:11;14.32;;;8.10;;
6388;SDS011;3227;42.654;23.360;2022-07-29T01:36:47;10.75;;;8.23;;
6388;SDS011;3227;42.654;23.360;2022-07-29T01:39:18;13.77;;;8.65;;
6388;SDS011;3227;42.654;23.360;2022-07-29T01:41:50;15.65;;;9.52;;
6388;SDS011;3227;42.654;23.360;2022-07-29T01:44:27;14.45;;;9.57;;
6388;SDS011;3227;42.654;23.360;2022-07-29T01:46:58;12.05;;;8.82;;
6388;SDS011;3227;42.654;23.360;2022-07-29T01:49:33;13.25;;;9.93;;
6388;SDS011;3227;42.654;23.360;2022-07-29T01:52:03;17.42;;;8.90;;
6388;SDS011;3227;42.654;23.360;2022-07-29T01:54:35;17.85;;;9.77;;
6388;SDS011;3227;42.654;23.360;2022-07-29T01:57:08;13.30;;;9.15;;
6388;SDS011;3227;42.654;23.360;2022-07-29T01:59:39;12.27;;;8.98;;
6388;SDS011;3227;42.654;23.360;2022-07-29T02:02:08;11.57;;;8.20;;
6388;SDS011;3227;42.654;23.360;2022-07-29T02:04:37;12.38;;;7.97;;
6388;SDS011;3227;42.654;23.360;2022-07-29T02:07:07;12.18;;;7.68;;
6388;SDS011;3227;42.654;23.360;2022-07-29T02:09:38;10.85;;;8.00;;
6388;SDS011;3227;42.654;23.360;2022-07-29T02:12:07;13.00;;;7.60;;
6388;SDS011;3227;42.654;23.360;2022-07-29T02:14:43;15.43;;;7.47;;
6388;SDS011;3227;42.654;23.360;2022-07-29T02:17:13;12.90;;;8.32;;
6388;SDS011;3227;42.654;23.360;2022-07-29T02:19:47;11.93;;;7.95;;
6388;SDS011;3227;42.654;23.360;2022-07-29T02:22:14;14.15;;;8.38;;
6388;SDS011;3227;42.654;23.360;2022-07-29T02:24:44;13.63;;;7.60;;
6388;SDS011;3227;42.654;23.360;2022-07-29T02:27:13;11.88;;;8.15;;
6388;SDS011;3227;42.654;23.360;2022-07-29T02:29:42;18.92;;;8.55;;
6388;SDS011;3227;42.654;23.360;2022-07-29T02:32:12;12.80;;;8.43;;
6388;SDS011;3227;42.654;23.360;2022-07-29T02:34:40;10.90;;;8.30;;
6388;SDS011;3227;42.654;23.360;2022-07-29T02:37:09;13.05;;;9.02;;
6388;SDS011;3227;42.654;23.360;2022-07-29T02:39:37;13.38;;;8.65;;
6388;SDS011;3227;42.654;23.360;2022-07-29T02:42:08;13.75;;;8.10;;
6388;SDS011;3227;42.654;23.360;2022-07-29T02:44:39;13.07;;;8.55;;
6388;SDS011;3227;42.654;23.360;2022-07-29T02:47:10;11.07;;;8.13;;
6388;SDS011;3227;42.654;23.360;2022-07-29T02:49:43;14.85;;;8.40;;
6388;SDS011;3227;42.654;23.360;2022-07-29T02:52:19;12.27;;;7.65;;
6388;SDS011;3227;42.654;23.360;2022-07-29T02:54:51;13.98;;;7.38;;
6388;SDS011;3227;42.654;23.360;2022-07-29T02:57:22;11.13;;;8.05;;
6388;SDS011;3227;42.654;23.360;2022-07-29T02:59:57;10.05;;;7.00;;
6388;SDS011;3227;42.654;23.360;2022-07-29T03:02:29;12.73;;;7.30;;
6388;SDS011;3227;42.654;23.360;2022-07-29T03:05:00;11.70;;;7.05;;
6388;SDS011;3227;42.654;23.360;2022-07-29T03:07:28;10.57;;;6.88;;
6388;SDS011;3227;42.654;23.360;2022-07-29T03:09:56;10.98;;;6.78;;
6388;SDS011;3227;42.654;23.360;2022-07-29T03:12:24;13.75;;;7.90;;
6388;SDS011;3227;42.654;23.360;2022-07-29T03:14:51;11.93;;;8.00;;
6388;SDS011;3227;42.654;23.360;2022-07-29T03:17:19;12.15;;;7.78;;
6388;SDS011;3227;42.654;23.360;2022-07-29T03:19:49;15.02;;;8.43;;
6388;SDS011;3227;42.654;23.360;2022-07-29T03:22:16;10.02;;;7.43;;
6388;SDS011;3227;42.654;23.360;2022-07-29T03:24:43;10.77;;;8.27;;
6388;SDS011;3227;42.654;23.360;2022-07-29T03:27:10;11.75;;;8.73;;
6388;SDS011;3227;42.654;23.360;2022-07-29T03:29:36;15.90;;;9.57;;
6388;SDS011;3227;42.654;23.360;2022-07-29T03:32:04;17.30;;;10.85;;
6388;SDS011;3227;42.654;23.360;2022-07-29T03:34:32;18.25;;;11.77;;
6388;SDS011;3227;42.654;23.360;2022-07-29T03:37:00;17.00;;;11.52;;
6388;SDS011;3227;42.654;23.360;2022-07-29T03:39:27;17.88;;;11.77;;
6388;SDS011;3227;42.654;23.360;2022-07-29T03:41:57;19.00;;;12.52;;
6388;SDS011;3227;42.654;23.360;2022-07-29T03:44:27;16.35;;;11.45;;
6388;SDS011;3227;42.654;23.360;2022-07-29T03:46:55;12.65;;;10.25;;
6388;SDS011;3227;42.654;23.360;2022-07-29T03:49:26;17.70;;;10.80;;
6388;SDS011;3227;42.654;23.360;2022-07-29T03:51:54;13.15;;;10.18;;
6388;SDS011;3227;42.654;23.360;2022-07-29T03:54:23;14.65;;;11.00;;
6388;SDS011;3227;42.654;23.360;2022-07-29T03:56:50;18.30;;;10.45;;
6388;SDS011;3227;42.654;23.360;2022-07-29T03:59:19;14.73;;;10.02;;
6388;SDS011;3227;42.654;23.360;2022-07-29T04:01:47;14.77;;;11.13;;
6388;SDS011;3227;42.654;23.360;2022-07-29T04:04:15;18.67;;;11.40;;
6388;SDS011;3227;42.654;23.360;2022-07-29T04:06:43;18.13;;;13.15;;
6388;SDS011;3227;42.654;23.360;2022-07-29T04:09:11;20.15;;;11.77;;
6388;SDS011;3227;42.654;23.360;2022-07-29T04:11:40;18.02;;;10.82;;
6388;SDS011;3227;42.654;23.360;2022-07-29T04:14:07;15.75;;;10.18;;
6388;SDS011;3227;42.654;23.360;2022-07-29T04:16:34;12.50;;;8.77;;
6388;SDS011;3227;42.654;23.360;2022-07-29T04:19:01;11.27;;;8.02;;
6388;SDS011;3227;42.654;23.360;2022-07-29T04:21:28;13.43;;;8.57;;
6388;SDS011;3227;42.654;23.360;2022-07-29T04:23:54;11.50;;;7.25;;
6388;SDS011;3227;42.654;23.360;2022-07-29T04:26:21;13.95;;;7.57;;
6388;SDS011;3227;42.654;23.360;2022-07-29T04:28:49;15.70;;;6.43;;
6388;SDS011;3227;42.654;23.360;2022-07-29T04:31:16;10.80;;;6.50;;
6388;SDS011;3227;42.654;23.360;2022-07-29T04:33:43;12.98;;;6.50;;
6388;SDS011;3227;42.654;23.360;2022-07-29T04:36:09;9.90;;;6.22;;
6388;SDS011;3227;42.654;23.360;2022-07-29T04:38:37;9.45;;;6.20;;
6388;SDS011;3227;42.654;23.360;2022-07-29T04:41:04;10.23;;;5.93;;
6388;SDS011;3227;42.654;23.360;2022-07-29T04:43:32;10.23;;;6.03;;
6388;SDS011;3227;42.654;23.360;2022-07-29T04:46:00;13.13;;;5.93;;
6388;SDS011;3227;42.654;23.360;2022-07-29T04:48:27;10.73;;;6.20;;
6388;SDS011;3227;42.654;23.360;2022-07-29T04:50:54;8.68;;;5.80;;
6388;SDS011;3227;42.654;23.360;2022-07-29T04:53:22;10.23;;;6.05;;
6388;SDS011;3227;42.654;23.360;2022-07-29T04:55:54;10.27;;;5.35;;
6388;SDS011;3227;42.654;23.360;2022-07-29T04:58:21;9.23;;;5.10;;
6388;SDS011;3227;42.654;23.360;2022-07-29T05:00:48;9.63;;;5.43;;
6388;SDS011;3227;42.654;23.360;2022-07-29T05:03:16;9.52;;;5.40;;
6388;SDS011;3227;42.654;23.360;2022-07-29T05:05:43;7.80;;;6.10;;
6388;SDS011;3227;42.654;23.360;2022-07-29T05:08:10;8.20;;;5.63;;
6388;SDS011;3227;42.654;23.360;2022-07-29T05:10:37;8.10;;;5.75;;
6388;SDS011;3227;42.654;23.360;2022-07-29T05:13:04;11.40;;;5.90;;
6388;SDS011;3227;42.654;23.360;2022-07-29T05:15:31;8.48;;;5.90;;
6388;SDS011;3227;42.654;23.360;2022-07-29T05:17:59;7.57;;;5.45;;
6388;SDS011;3227;42.654;23.360;2022-07-29T05:20:27;14.57;;;5.93;;
6388;SDS011;3227;42.654;23.360;2022-07-29T05:22:55;8.50;;;5.30;;
6388;SDS011;3227;42.654;23.360;2022-07-29T05:28:20;11.18;;;6.10;;
6388;SDS011;3227;42.654;23.360;2022-07-29T05:30:47;8.65;;;5.53;;
6388;SDS011;3227;42.654;23.360;2022-07-29T05:33:14;13.30;;;6.18;;
6388;SDS011;3227;42.654;23.360;2022-07-29T05:35:42;10.52;;;5.65;;
6388;SDS011;3227;42.654;23.360;2022-07-29T05:38:09;11.68;;;5.80;;
6388;SDS011;3227;42.654;23.360;2022-07-29T05:40:36;10.77;;;6.20;;
6388;SDS011;3227;42.654;23.360;2022-07-29T05:43:02;12.38;;;6.47;;
6388;SDS011;3227;42.654;23.360;2022-07-29T05:45:29;9.40;;;5.93;;
6388;SDS011;3227;42.654;23.360;2022-07-29T05:47:56;11.88;;;6.30;;
6388;SDS011;3227;42.654;23.360;2022-07-29T05:50:23;9.68;;;6.30;;
6388;SDS011;3227;42.654;23.360;2022-07-29T05:52:51;13.80;;;6.38;;
6388;SDS011;3227;42.654;23.360;2022-07-29T05:55:18;10.88;;;6.57;;
6388;SDS011;3227;42.654;23.360;2022-07-29T05:57:44;12.43;;;6.30;;
6388;SDS011;3227;42.654;23.360;2022-07-29T06:00:11;11.88;;;7.13;;
6388;SDS011;3227;42.654;23.360;2022-07-29T06:02:39;11.70;;;7.35;;
6388;SDS011;3227;42.654;23.360;2022-07-29T06:05:06;11.13;;;6.40;;
6388;SDS011;3227;42.654;23.360;2022-07-29T06:07:33;13.00;;;7.03;;
6388;SDS011;3227;42.654;23.360;2022-07-29T06:10:02;11.57;;;6.40;;
6388;SDS011;3227;42.654;23.360;2022-07-29T06:12:29;9.85;;;6.78;;
6388;SDS011;3227;42.654;23.360;2022-07-29T06:14:56;12.50;;;7.22;;
6388;SDS011;3227;42.654;23.360;2022-07-29T06:17:23;8.95;;;6.35;;
6388;SDS011;3227;42.654;23.360;2022-07-29T06:19:50;12.25;;;6.95;;
6388;SDS011;3227;42.654;23.360;2022-07-29T06:22:17;11.52;;;6.68;;
6388;SDS011;3227;42.654;23.360;2022-07-29T06:24:44;10.63;;;6.05;;
6388;SDS011;3227;42.654;23.360;2022-07-29T06:27:12;12.18;;;6.72;;
6388;SDS011;3227;42.654;23.360;2022-07-29T06:29:39;11.05;;;6.57;;
6388;SDS011;3227;42.654;23.360;2022-07-29T06:32:06;13.55;;;6.55;;
6388;SDS011;3227;42.654;23.360;2022-07-29T06:34:34;9.88;;;5.95;;
6388;SDS011;3227;42.654;23.360;2022-07-29T06:37:05;8.65;;;5.82;;
6388;SDS011;3227;42.654;23.360;2022-07-29T06:39:33;11.32;;;6.63;;
6388;SDS011;3227;42.654;23.360;2022-07-29T06:42:00;10.55;;;6.20;;
6388;SDS011;3227;42.654;23.360;2022-07-29T06:44:28;11.25;;;6.38;;
6388;SDS011;3227;42.654;23.360;2022-07-29T06:46:56;10.73;;;6.70;;
6388;SDS011;3227;42.654;23.360;2022-07-29T06:49:22;9.98;;;6.43;;
6388;SDS011;3227;42.654;23.360;2022-07-29T06:51:51;8.77;;;5.80;;
6388;SDS011;3227;42.654;23.360;2022-07-29T06:54:17;10.35;;;6.30;;
6388;SDS011;3227;42.654;23.360;2022-07-29T06:56:44;8.20;;;6.35;;
6388;SDS011;3227;42.654;23.360;2022-07-29T06:59:12;9.95;;;6.30;;
6388;SDS011;3227;42.654;23.360;2022-07-29T07:01:41;11.18;;;6.63;;
6388;SDS011;3227;42.654;23.360;2022-07-29T07:04:09;11.27;;;6.40;;
6388;SDS011;3227;42.654;23.360;2022-07-29T07:06:37;8.30;;;6.03;;
6388;SDS011;3227;42.654;23.360;2022-07-29T07:09:04;7.78;;;5.70;;
6388;SDS011;3227;42.654;23.360;2022-07-29T07:11:30;10.88;;;6.50;;
6388;SDS011;3227;42.654;23.360;2022-07-29T07:13:57;9.82;;;6.25;;
6388;SDS011;3227;42.654;23.360;2022-07-29T07:16:24;10.93;;;5.88;;
6388;SDS011;3227;42.654;23.360;2022-07-29T07:18:52;9.25;;;5.93;;
6388;SDS011;3227;42.654;23.360;2022-07-29T07:21:19;8.40;;;5.68;;
6388;SDS011;3227;42.654;23.360;2022-07-29T07:23:46;10.43;;;5.60;;
6388;SDS011;3227;42.654;23.360;2022-07-29T07:26:12;6.80;;;4.53;;
6388;SDS011;3227;42.654;23.360;2022-07-29T07:28:39;9.25;;;5.57;;
6388;SDS011;3227;42.654;23.360;2022-07-29T07:31:06;9.13;;;5.00;;
6388;SDS011;3227;42.654;23.360;2022-07-29T07:33:33;7.32;;;4.93;;
6388;SDS011;3227;42.654;23.360;2022-07-29T07:36:01;6.45;;;4.88;;
6388;SDS011;3227;42.654;23.360;2022-07-29T07:38:28;9.45;;;4.72;;
6388;SDS011;3227;42.654;23.360;2022-07-29T07:40:55;9.02;;;5.57;;
6388;SDS011;3227;42.654;23.360;2022-07-29T07:43:22;8.30;;;5.03;;
6388;SDS011;3227;42.654;23.360;2022-07-29T07:45:48;11.15;;;5.20;;
6388;SDS011;3227;42.654;23.360;2022-07-29T07:48:15;9.95;;;4.68;;
6388;SDS011;3227;42.654;23.360;2022-07-29T07:50:42;7.88;;;4.75;;
6388;SDS011;3227;42.654;23.360;2022-07-29T07:53:10;17.83;;;5.30;;
6388;SDS011;3227;42.654;23.360;2022-07-29T07:55:39;7.72;;;4.63;;
6388;SDS011;3227;42.654;23.360;2022-07-29T07:58:06;9.23;;;4.82;;
6388;SDS011;3227;42.654;23.360;2022-07-29T08:00:33;6.63;;;4.38;;
6388;SDS011;3227;42.654;23.360;2022-07-29T08:02:59;7.18;;;4.30;;
6388;SDS011;3227;42.654;23.360;2022-07-29T08:05:26;7.35;;;4.50;;
6388;SDS011;3227;42.654;23.360;2022-07-29T08:07:53;8.13;;;4.50;;
6388;SDS011;3227;42.654;23.360;2022-07-29T08:10:21;8.00;;;4.20;;
6388;SDS011;3227;42.654;23.360;2022-07-29T08:13:02;7.13;;;4.55;;
6388;SDS011;3227;42.654;23.360;2022-07-29T08:15:29;8.00;;;4.90;;
6388;SDS011;3227;42.654;23.360;2022-07-29T08:17:56;9.57;;;4.30;;
6388;SDS011;3227;42.654;23.360;2022-07-29T08:20:23;7.85;;;4.35;;
6388;SDS011;3227;42.654;23.360;2022-07-29T08:22:49;8.60;;;4.22;;
6388;SDS011;3227;42.654;23.360;2022-07-29T08:25:18;7.90;;;4.40;;
6388;SDS011;3227;42.654;23.360;2022-07-29T08:27:47;8.88;;;4.10;;
6388;SDS011;3227;42.654;23.360;2022-07-29T08:30:14;7.88;;;4.10;;
6388;SDS011;3227;42.654;23.360;2022-07-29T08:32:40;6.35;;;3.70;;
6388;SDS011;3227;42.654;23.360;2022-07-29T08:35:08;8.40;;;4.25;;
6388;SDS011;3227;42.654;23.360;2022-07-29T08:37:35;7.45;;;3.88;;
6388;SDS011;3227;42.654;23.360;2022-07-29T08:40:02;5.47;;;3.65;;
6388;SDS011;3227;42.654;23.360;2022-07-29T08:42:31;6.72;;;3.72;;
6388;SDS011;3227;42.654;23.360;2022-07-29T08:45:05;8.48;;;3.80;;
6388;SDS011;3227;42.654;23.360;2022-07-29T08:47:33;7.43;;;4.45;;
6388;SDS011;3227;42.654;23.360;2022-07-29T08:50:02;11.27;;;4.32;;
6388;SDS011;3227;42.654;23.360;2022-07-29T08:52:29;5.82;;;3.67;;
6388;SDS011;3227;42.654;23.360;2022-07-29T08:55:02;6.70;;;3.80;;
6388;SDS011;3227;42.654;23.360;2022-07-29T08:57:29;6.13;;;3.70;;
6388;SDS011;3227;42.654;23.360;2022-07-29T08:59:56;9.50;;;3.63;;
6388;SDS011;3227;42.654;23.360;2022-07-29T09:02:28;10.43;;;4.10;;
6388;SDS011;3227;42.654;23.360;2022-07-29T09:05:05;9.60;;;4.18;;
6388;SDS011;3227;42.654;23.360;2022-07-29T09:07:33;10.68;;;4.20;;
6388;SDS011;3227;42.654;23.360;2022-07-29T09:10:00;6.75;;;3.60;;
6388;SDS011;3227;42.654;23.360;2022-07-29T09:12:28;7.40;;;4.05;;
6388;SDS011;3227;42.654;23.360;2022-07-29T09:14:56;10.80;;;4.35;;
6388;SDS011;3227;42.654;23.360;2022-07-29T09:20:10;6.43;;;3.63;;
6388;SDS011;3227;42.654;23.360;2022-07-29T09:22:38;7.78;;;3.50;;
6388;SDS011;3227;42.654;23.360;2022-07-29T09:25:05;11.23;;;3.70;;
6388;SDS011;3227;42.654;23.360;2022-07-29T09:27:33;7.65;;;4.60;;
6388;SDS011;3227;42.654;23.360;2022-07-29T09:30:01;6.88;;;4.10;;
6388;SDS011;3227;42.654;23.360;2022-07-29T09:32:30;8.32;;;4.32;;
6388;SDS011;3227;42.654;23.360;2022-07-29T09:35:21;6.97;;;4.30;;
6388;SDS011;3227;42.654;23.360;2022-07-29T09:37:49;7.80;;;4.43;;
6388;SDS011;3227;42.654;23.360;2022-07-29T09:40:17;9.68;;;4.82;;
6388;SDS011;3227;42.654;23.360;2022-07-29T09:42:45;7.28;;;4.53;;
6388;SDS011;3227;42.654;23.360;2022-07-29T09:45:12;7.03;;;4.38;;
6388;SDS011;3227;42.654;23.360;2022-07-29T09:47:51;12.32;;;4.65;;
6388;SDS011;3227;42.654;23.360;2022-07-29T09:50:20;8.00;;;4.82;;
6388;SDS011;3227;42.654;23.360;2022-07-29T09:52:49;7.80;;;4.65;;
6388;SDS011;3227;42.654;23.360;2022-07-29T09:55:17;7.18;;;4.50;;
6388;SDS011;3227;42.654;23.360;2022-07-29T09:57:45;6.57;;;4.47;;
6388;SDS011;3227;42.654;23.360;2022-07-29T10:00:13;8.80;;;4.63;;
6388;SDS011;3227;42.654;23.360;2022-07-29T10:02:43;7.22;;;4.38;;
6388;SDS011;3227;42.654;23.360;2022-07-29T10:05:18;7.13;;;4.43;;
6388;SDS011;3227;42.654;23.360;2022-07-29T10:07:48;9.82;;;4.38;;
6388;SDS011;3227;42.654;23.360;2022-07-29T10:10:20;10.90;;;4.75;;
6388;SDS011;3227;42.654;23.360;2022-07-29T10:12:49;10.30;;;5.68;;
6388;SDS011;3227;42.654;23.360;2022-07-29T10:15:17;8.45;;;4.60;;
6388;SDS011;3227;42.654;23.360;2022-07-29T10:17:45;8.88;;;4.22;;
6388;SDS011;3227;42.654;23.360;2022-07-29T10:20:12;9.55;;;4.57;;
6388;SDS011;3227;42.654;23.360;2022-07-29T10:22:41;7.70;;;4.22;;
6388;SDS011;3227;42.654;23.360;2022-07-29T10:25:09;11.27;;;5.47;;
6388;SDS011;3227;42.654;23.360;2022-07-29T10:27:36;9.13;;;5.65;;
6388;SDS011;3227;42.654;23.360;2022-07-29T10:30:04;8.38;;;5.30;;
6388;SDS011;3227;42.654;23.360;2022-07-29T10:32:37;10.48;;;5.32;;
6388;SDS011;3227;42.654;23.360;2022-07-29T10:35:28;11.20;;;5.60;;
6388;SDS011;3227;42.654;23.360;2022-07-29T10:38:21;8.13;;;4.35;;
6388;SDS011;3227;42.654;23.360;2022-07-29T10:41:16;8.73;;;3.95;;
6388;SDS011;3227;42.654;23.360;2022-07-29T10:43:55;8.07;;;4.85;;
6388;SDS011;3227;42.654;23.360;2022-07-29T10:46:25;7.85;;;4.75;;
6388;SDS011;3227;42.654;23.360;2022-07-29T10:49:09;13.85;;;7.05;;
6388;SDS011;3227;42.654;23.360;2022-07-29T10:57:21;7.43;;;3.75;;
6388;SDS011;3227;42.654;23.360;2022-07-29T11:02:52;6.53;;;3.75;;
6388;SDS011;3227;42.654;23.360;2022-07-29T11:05:21;5.82;;;3.97;;
6388;SDS011;3227;42.654;23.360;2022-07-29T11:10:50;8.82;;;3.95;;
6388;SDS011;3227;42.654;23.360;2022-07-29T11:16:17;9.65;;;4.20;;
6388;SDS011;3227;42.654;23.360;2022-07-29T11:21:49;6.93;;;4.25;;
6388;SDS011;3227;42.654;23.360;2022-07-29T11:24:18;7.97;;;4.55;;
6388;SDS011;3227;42.654;23.360;2022-07-29T11:29:39;10.55;;;4.80;;
6388;SDS011;3227;42.654;23.360;2022-07-29T11:32:14;8.88;;;4.40;;
6388;SDS011;3227;42.654;23.360;2022-07-29T11:34:44;10.20;;;4.35;;
6388;SDS011;3227;42.654;23.360;2022-07-29T11:37:16;7.57;;;4.43;;
6388;SDS011;3227;42.654;23.360;2022-07-29T11:42:47;8.57;;;4.63;;
6388;SDS011;3227;42.654;23.360;2022-07-29T11:45:16;7.25;;;4.93;;
6388;SDS011;3227;42.654;23.360;2022-07-29T11:47:49;8.57;;;4.70;;
6388;SDS011;3227;42.654;23.360;2022-07-29T11:50:18;7.57;;;4.60;;
6388;SDS011;3227;42.654;23.360;2022-07-29T11:52:57;7.30;;;4.60;;
6388;SDS011;3227;42.654;23.360;2022-07-29T11:55:24;6.38;;;4.38;;
6388;SDS011;3227;42.654;23.360;2022-07-29T11:57:53;8.60;;;5.15;;
6388;SDS011;3227;42.654;23.360;2022-07-29T12:00:22;9.60;;;5.10;;
6388;SDS011;3227;42.654;23.360;2022-07-29T12:02:50;12.00;;;5.25;;
6388;SDS011;3227;42.654;23.360;2022-07-29T12:05:18;9.60;;;4.85;;
6388;SDS011;3227;42.654;23.360;2022-07-29T12:07:46;9.18;;;5.20;;
6388;SDS011;3227;42.654;23.360;2022-07-29T12:10:13;6.90;;;4.90;;
6388;SDS011;3227;42.654;23.360;2022-07-29T12:12:40;8.45;;;5.10;;
6388;SDS011;3227;42.654;23.360;2022-07-29T12:15:13;8.50;;;5.00;;
6388;SDS011;3227;42.654;23.360;2022-07-29T12:17:42;8.98;;;5.13;;
6388;SDS011;3227;42.654;23.360;2022-07-29T12:20:09;8.38;;;5.90;;
6388;SDS011;3227;42.654;23.360;2022-07-29T12:22:38;7.82;;;5.10;;
6388;SDS011;3227;42.654;23.360;2022-07-29T12:25:09;9.20;;;4.90;;
6388;SDS011;3227;42.654;23.360;2022-07-29T12:27:37;9.80;;;5.07;;
6388;SDS011;3227;42.654;23.360;2022-07-29T12:30:05;10.43;;;8.48;;
6388;SDS011;3227;42.654;23.360;2022-07-29T12:32:36;9.93;;;5.95;;
6388;SDS011;3227;42.654;23.360;2022-07-29T12:35:05;7.55;;;5.43;;
6388;SDS011;3227;42.654;23.360;2022-07-29T12:37:33;9.65;;;5.25;;
6388;SDS011;3227;42.654;23.360;2022-07-29T12:40:02;13.85;;;7.43;;
6388;SDS011;3227;42.654;23.360;2022-07-29T12:42:30;9.15;;;6.30;;
6388;SDS011;3227;42.654;23.360;2022-07-29T12:44:57;7.40;;;5.55;;
6388;SDS011;3227;42.654;23.360;2022-07-29T12:47:24;7.72;;;5.28;;
6388;SDS011;3227;42.654;23.360;2022-07-29T12:50:07;8.38;;;5.60;;
6388;SDS011;3227;42.654;23.360;2022-07-29T12:52:35;7.72;;;5.45;;
6388;SDS011;3227;42.654;23.360;2022-07-29T12:55:02;10.25;;;5.90;;
6388;SDS011;3227;42.654;23.360;2022-07-29T12:57:29;8.88;;;5.57;;
6388;SDS011;3227;42.654;23.360;2022-07-29T13:00:00;9.00;;;5.47;;
6388;SDS011;3227;42.654;23.360;2022-07-29T13:02:33;8.00;;;5.78;;
6388;SDS011;3227;42.654;23.360;2022-07-29T13:05:01;8.90;;;5.20;;
6388;SDS011;3227;42.654;23.360;2022-07-29T13:07:29;10.57;;;6.30;;
6388;SDS011;3227;42.654;23.360;2022-07-29T13:10:09;7.82;;;5.65;;
6388;SDS011;3227;42.654;23.360;2022-07-29T13:12:37;8.27;;;5.55;;
6388;SDS011;3227;42.654;23.360;2022-07-29T13:15:12;8.80;;;5.70;;
6388;SDS011;3227;42.654;23.360;2022-07-29T13:17:40;7.72;;;5.20;;
6388;SDS011;3227;42.654;23.360;2022-07-29T13:20:10;7.78;;;5.40;;
6388;SDS011;3227;42.654;23.360;2022-07-29T13:22:39;8.65;;;5.90;;
6388;SDS011;3227;42.654;23.360;2022-07-29T13:25:23;10.02;;;5.57;;
6388;SDS011;3227;42.654;23.360;2022-07-29T13:27:50;8.18;;;5.30;;
6388;SDS011;3227;42.654;23.360;2022-07-29T13:30:19;8.07;;;6.03;;
6388;SDS011;3227;42.654;23.360;2022-07-29T13:32:47;8.68;;;5.70;;
6388;SDS011;3227;42.654;23.360;2022-07-29T13:35:15;13.07;;;5.70;;
6388;SDS011;3227;42.654;23.360;2022-07-29T13:37:42;9.95;;;5.97;;
6388;SDS011;3227;42.654;23.360;2022-07-29T13:40:09;7.90;;;4.90;;
6388;SDS011;3227;42.654;23.360;2022-07-29T13:42:37;7.93;;;5.30;;
6388;SDS011;3227;42.654;23.360;2022-07-29T13:45:06;7.55;;;5.40;;
6388;SDS011;3227;42.654;23.360;2022-07-29T13:47:34;10.05;;;6.00;;
6388;SDS011;3227;42.654;23.360;2022-07-29T13:50:01;10.60;;;5.75;;
6388;SDS011;3227;42.654;23.360;2022-07-29T13:52:30;8.90;;;5.93;;
6388;SDS011;3227;42.654;23.360;2022-07-29T13:54:57;8.82;;;5.65;;
6388;SDS011;3227;42.654;23.360;2022-07-29T13:57:24;11.85;;;6.60;;
6388;SDS011;3227;42.654;23.360;2022-07-29T13:59:51;8.50;;;5.45;;
6388;SDS011;3227;42.654;23.360;2022-07-29T14:02:18;8.18;;;5.47;;
6388;SDS011;3227;42.654;23.360;2022-07-29T14:04:45;13.65;;;5.30;;
6388;SDS011;3227;42.654;23.360;2022-07-29T14:07:11;7.90;;;5.22;;
6388;SDS011;3227;42.654;23.360;2022-07-29T14:09:39;9.43;;;5.63;;
6388;SDS011;3227;42.654;23.360;2022-07-29T14:12:07;12.48;;;7.25;;
6388;SDS011;3227;42.654;23.360;2022-07-29T14:14:34;10.05;;;6.05;;
6388;SDS011;3227;42.654;23.360;2022-07-29T14:17:01;11.63;;;5.45;;
6388;SDS011;3227;42.654;23.360;2022-07-29T14:19:31;8.23;;;5.60;;
6388;SDS011;3227;42.654;23.360;2022-07-29T14:22:00;19.40;;;9.18;;
6388;SDS011;3227;42.654;23.360;2022-07-29T14:24:28;9.63;;;5.22;;
6388;SDS011;3227;42.654;23.360;2022-07-29T14:26:56;11.52;;;5.55;;
6388;SDS011;3227;42.654;23.360;2022-07-29T14:29:23;8.48;;;5.18;;
6388;SDS011;3227;42.654;23.360;2022-07-29T14:31:50;7.75;;;5.10;;
6388;SDS011;3227;42.654;23.360;2022-07-29T14:34:17;7.80;;;5.70;;
6388;SDS011;3227;42.654;23.360;2022-07-29T14:36:44;12.65;;;5.22;;
6388;SDS011;3227;42.654;23.360;2022-07-29T14:39:10;10.05;;;6.13;;
6388;SDS011;3227;42.654;23.360;2022-07-29T14:41:37;7.60;;;5.47;;
6388;SDS011;3227;42.654;23.360;2022-07-29T14:44:06;8.23;;;5.57;;
6388;SDS011;3227;42.654;23.360;2022-07-29T14:46:33;9.38;;;5.13;;
6388;SDS011;3227;42.654;23.360;2022-07-29T14:48:59;9.18;;;5.90;;
6388;SDS011;3227;42.654;23.360;2022-07-29T14:51:26;9.98;;;6.10;;
6388;SDS011;3227;42.654;23.360;2022-07-29T14:53:53;11.60;;;5.55;;
6388;SDS011;3227;42.654;23.360;2022-07-29T14:56:21;10.45;;;5.30;;
6388;SDS011;3227;42.654;23.360;2022-07-29T14:58:48;8.20;;;5.75;;
6388;SDS011;3227;42.654;23.360;2022-07-29T15:01:16;8.07;;;5.35;;
6388;SDS011;3227;42.654;23.360;2022-07-29T15:03:43;6.68;;;5.30;;
6388;SDS011;3227;42.654;23.360;2022-07-29T15:06:10;8.65;;;5.93;;
6388;SDS011;3227;42.654;23.360;2022-07-29T15:08:36;8.98;;;5.88;;
6388;SDS011;3227;42.654;23.360;2022-07-29T15:11:03;7.45;;;5.90;;
6388;SDS011;3227;42.654;23.360;2022-07-29T15:13:30;8.85;;;5.63;;
6388;SDS011;3227;42.654;23.360;2022-07-29T15:15:57;9.32;;;5.70;;
6388;SDS011;3227;42.654;23.360;2022-07-29T15:18:25;10.75;;;5.88;;
6388;SDS011;3227;42.654;23.360;2022-07-29T15:20:51;8.23;;;5.65;;
6388;SDS011;3227;42.654;23.360;2022-07-29T15:23:18;8.38;;;5.88;;
6388;SDS011;3227;42.654;23.360;2022-07-29T15:25:45;9.23;;;5.93;;
6388;SDS011;3227;42.654;23.360;2022-07-29T15:28:12;8.63;;;5.60;;
6388;SDS011;3227;42.654;23.360;2022-07-29T15:30:39;11.18;;;5.55;;
6388;SDS011;3227;42.654;23.360;2022-07-29T15:33:07;9.15;;;5.70;;